sensor_id;sensor_type;location;lat;lon;timestamp;P1;durP1;ratioP1;P2;durP2;ratioP2
81510;SDS011;70931;48.796;8.440;2024-02-21T00:00:34;6.33;;;2.20;;
81510;SDS011;70931;48.796;8.440;2024-02-21T00:03:00;10.13;;;1.90;;
81510;SDS011;70931;48.796;8.440;2024-02-21T00:05:25;8.20;;;1.87;;
81510;SDS011;70931;48.796;8.440;2024-02-21T00:07:50;6.40;;;2.33;;
81510;SDS011;70931;48.796;8.440;2024-02-21T00:10:15;8.77;;;1.83;;
81510;SDS011;70931;48.796;8.440;2024-02-21T00:12:40;6.20;;;1.93;;
81510;SDS011;70931;48.796;8.440;2024-02-21T00:15:06;7.57;;;2.07;;
81510;SDS011;70931;48.796;8.440;2024-02-21T00:17:31;6.38;;;1.80;;
81510;SDS011;70931;48.796;8.440;2024-02-21T00:19:57;6.13;;;1.70;;
81510;SDS011;70931;48.796;8.440;2024-02-21T00:22:22;8.30;;;2.03;;
81510;SDS011;70931;48.796;8.440;2024-02-21T00:24:47;5.63;;;1.70;;
81510;SDS011;70931;48.796;8.440;2024-02-21T00:27:12;7.60;;;2.03;;
81510;SDS011;70931;48.796;8.440;2024-02-21T00:29:37;5.87;;;1.90;;
81510;SDS011;70931;48.796;8.440;2024-02-21T00:32:03;10.07;;;1.90;;
81510;SDS011;70931;48.796;8.440;2024-02-21T00:34:28;7.15;;;1.90;;
81510;SDS011;70931;48.796;8.440;2024-02-21T00:36:53;6.50;;;1.90;;
81510;SDS011;70931;48.796;8.440;2024-02-21T00:39:19;6.80;;;2.20;;
81510;SDS011;70931;48.796;8.440;2024-02-21T00:41:44;9.03;;;2.00;;
81510;SDS011;70931;48.796;8.440;2024-02-21T00:44:09;9.50;;;2.03;;
81510;SDS011;70931;48.796;8.440;2024-02-21T00:46:34;9.20;;;1.87;;
81510;SDS011;70931;48.796;8.440;2024-02-21T00:48:59;5.37;;;1.70;;
81510;SDS011;70931;48.796;8.440;2024-02-21T00:51:25;7.10;;;2.17;;
81510;SDS011;70931;48.796;8.440;2024-02-21T00:53:50;8.90;;;2.00;;
81510;SDS011;70931;48.796;8.440;2024-02-21T00:56:16;7.53;;;2.00;;
81510;SDS011;70931;48.796;8.440;2024-02-21T00:58:41;7.60;;;2.00;;
81510;SDS011;70931;48.796;8.440;2024-02-21T01:01:06;7.37;;;1.80;;
81510;SDS011;70931;48.796;8.440;2024-02-21T01:03:31;7.80;;;2.07;;
81510;SDS011;70931;48.796;8.440;2024-02-21T01:05:56;6.57;;;1.90;;
81510;SDS011;70931;48.796;8.440;2024-02-21T01:08:22;7.10;;;1.97;;
81510;SDS011;70931;48.796;8.440;2024-02-21T01:10:47;6.27;;;1.77;;
81510;SDS011;70931;48.796;8.440;2024-02-21T01:13:12;10.43;;;2.30;;
81510;SDS011;70931;48.796;8.440;2024-02-21T01:15:37;5.73;;;1.70;;
81510;SDS011;70931;48.796;8.440;2024-02-21T01:18:03;6.40;;;1.93;;
81510;SDS011;70931;48.796;8.440;2024-02-21T01:20:28;8.25;;;1.88;;
81510;SDS011;70931;48.796;8.440;2024-02-21T01:22:53;7.90;;;2.03;;
81510;SDS011;70931;48.796;8.440;2024-02-21T01:25:19;6.20;;;1.70;;
81510;SDS011;70931;48.796;8.440;2024-02-21T01:27:44;7.13;;;1.80;;
81510;SDS011;70931;48.796;8.440;2024-02-21T01:30:09;7.03;;;2.20;;
81510;SDS011;70931;48.796;8.440;2024-02-21T01:32:35;7.15;;;2.00;;
81510;SDS011;70931;48.796;8.440;2024-02-21T01:35:00;7.13;;;2.13;;
81510;SDS011;70931;48.796;8.440;2024-02-21T01:37:25;8.70;;;2.97;;
81510;SDS011;70931;48.796;8.440;2024-02-21T01:39:50;6.37;;;2.03;;
81510;SDS011;70931;48.796;8.440;2024-02-21T01:42:16;9.43;;;2.37;;
81510;SDS011;70931;48.796;8.440;2024-02-21T01:44:41;7.50;;;2.20;;
81510;SDS011;70931;48.796;8.440;2024-02-21T01:47:06;9.57;;;2.50;;
81510;SDS011;70931;48.796;8.440;2024-02-21T01:49:32;5.22;;;1.73;;
81510;SDS011;70931;48.796;8.440;2024-02-21T01:51:57;4.97;;;1.70;;
81510;SDS011;70931;48.796;8.440;2024-02-21T01:54:23;9.13;;;2.00;;
81510;SDS011;70931;48.796;8.440;2024-02-21T01:56:48;7.28;;;2.47;;
81510;SDS011;70931;48.796;8.440;2024-02-21T01:59:14;10.40;;;2.13;;
81510;SDS011;70931;48.796;8.440;2024-02-21T02:01:40;8.98;;;2.38;;
81510;SDS011;70931;48.796;8.440;2024-02-21T02:04:06;8.13;;;2.00;;
81510;SDS011;70931;48.796;8.440;2024-02-21T02:06:32;8.02;;;2.08;;
81510;SDS011;70931;48.796;8.440;2024-02-21T02:08:57;10.43;;;2.30;;
81510;SDS011;70931;48.796;8.440;2024-02-21T02:11:23;6.87;;;2.47;;
81510;SDS011;70931;48.796;8.440;2024-02-21T02:13:48;8.33;;;2.40;;
81510;SDS011;70931;48.796;8.440;2024-02-21T02:16:13;8.33;;;2.10;;
81510;SDS011;70931;48.796;8.440;2024-02-21T02:18:38;8.50;;;1.97;;
81510;SDS011;70931;48.796;8.440;2024-02-21T02:21:04;7.27;;;2.03;;
81510;SDS011;70931;48.796;8.440;2024-02-21T02:23:38;9.00;;;2.15;;
81510;SDS011;70931;48.796;8.440;2024-02-21T02:26:04;6.03;;;2.13;;
81510;SDS011;70931;48.796;8.440;2024-02-21T02:28:30;6.23;;;2.00;;
81510;SDS011;70931;48.796;8.440;2024-02-21T02:30:55;7.30;;;2.13;;
81510;SDS011;70931;48.796;8.440;2024-02-21T02:33:20;7.63;;;1.80;;
81510;SDS011;70931;48.796;8.440;2024-02-21T02:35:45;9.97;;;1.90;;
81510;SDS011;70931;48.796;8.440;2024-02-21T02:38:11;8.85;;;2.30;;
81510;SDS011;70931;48.796;8.440;2024-02-21T02:40:37;8.75;;;2.35;;
81510;SDS011;70931;48.796;8.440;2024-02-21T02:43:03;7.20;;;1.80;;
81510;SDS011;70931;48.796;8.440;2024-02-21T02:45:28;8.87;;;2.10;;
81510;SDS011;70931;48.796;8.440;2024-02-21T02:47:53;7.43;;;2.47;;
81510;SDS011;70931;48.796;8.440;2024-02-21T02:50:19;10.25;;;2.00;;
81510;SDS011;70931;48.796;8.440;2024-02-21T02:52:44;6.97;;;2.25;;
81510;SDS011;70931;48.796;8.440;2024-02-21T02:55:10;9.27;;;1.98;;
81510;SDS011;70931;48.796;8.440;2024-02-21T02:57:35;5.37;;;1.70;;
81510;SDS011;70931;48.796;8.440;2024-02-21T03:00:00;6.63;;;2.10;;
81510;SDS011;70931;48.796;8.440;2024-02-21T03:02:25;6.07;;;2.03;;
81510;SDS011;70931;48.796;8.440;2024-02-21T03:04:51;7.07;;;2.03;;
81510;SDS011;70931;48.796;8.440;2024-02-21T03:07:16;10.10;;;2.10;;
81510;SDS011;70931;48.796;8.440;2024-02-21T03:09:41;5.63;;;1.98;;
81510;SDS011;70931;48.796;8.440;2024-02-21T03:12:07;6.65;;;1.60;;
81510;SDS011;70931;48.796;8.440;2024-02-21T03:14:32;7.30;;;2.20;;
81510;SDS011;70931;48.796;8.440;2024-02-21T03:16:58;5.73;;;1.90;;
81510;SDS011;70931;48.796;8.440;2024-02-21T03:19:24;7.53;;;1.80;;
81510;SDS011;70931;48.796;8.440;2024-02-21T03:21:49;6.97;;;2.05;;
81510;SDS011;70931;48.796;8.440;2024-02-21T03:24:16;7.37;;;1.60;;
81510;SDS011;70931;48.796;8.440;2024-02-21T03:26:41;9.95;;;3.00;;
81510;SDS011;70931;48.796;8.440;2024-02-21T03:29:06;6.03;;;1.73;;
81510;SDS011;70931;48.796;8.440;2024-02-21T03:31:32;5.57;;;1.80;;
81510;SDS011;70931;48.796;8.440;2024-02-21T03:33:57;6.53;;;1.93;;
81510;SDS011;70931;48.796;8.440;2024-02-21T03:36:22;8.10;;;1.90;;
81510;SDS011;70931;48.796;8.440;2024-02-21T03:38:48;8.60;;;2.00;;
81510;SDS011;70931;48.796;8.440;2024-02-21T03:41:13;8.27;;;2.30;;
81510;SDS011;70931;48.796;8.440;2024-02-21T03:43:38;6.37;;;2.23;;
81510;SDS011;70931;48.796;8.440;2024-02-21T03:46:03;12.80;;;3.13;;
81510;SDS011;70931;48.796;8.440;2024-02-21T03:48:28;6.53;;;3.00;;
81510;SDS011;70931;48.796;8.440;2024-02-21T03:50:54;9.50;;;2.53;;
81510;SDS011;70931;48.796;8.440;2024-02-21T03:53:19;7.60;;;1.90;;
81510;SDS011;70931;48.796;8.440;2024-02-21T03:55:44;9.23;;;2.40;;
81510;SDS011;70931;48.796;8.440;2024-02-21T03:58:09;7.53;;;2.40;;
81510;SDS011;70931;48.796;8.440;2024-02-21T04:00:34;6.30;;;2.10;;
81510;SDS011;70931;48.796;8.440;2024-02-21T04:03:00;8.03;;;1.90;;
81510;SDS011;70931;48.796;8.440;2024-02-21T04:05:25;6.10;;;1.63;;
81510;SDS011;70931;48.796;8.440;2024-02-21T04:07:50;7.07;;;2.53;;
81510;SDS011;70931;48.796;8.440;2024-02-21T04:10:15;8.00;;;2.00;;
81510;SDS011;70931;48.796;8.440;2024-02-21T04:12:41;6.97;;;2.07;;
81510;SDS011;70931;48.796;8.440;2024-02-21T04:15:06;10.73;;;2.07;;
81510;SDS011;70931;48.796;8.440;2024-02-21T04:17:31;5.70;;;1.80;;
81510;SDS011;70931;48.796;8.440;2024-02-21T04:20:01;6.23;;;1.80;;
81510;SDS011;70931;48.796;8.440;2024-02-21T04:22:29;5.63;;;1.80;;
81510;SDS011;70931;48.796;8.440;2024-02-21T04:24:54;7.00;;;2.13;;
81510;SDS011;70931;48.796;8.440;2024-02-21T04:27:19;8.03;;;1.73;;
81510;SDS011;70931;48.796;8.440;2024-02-21T04:29:44;7.10;;;2.00;;
81510;SDS011;70931;48.796;8.440;2024-02-21T04:32:10;8.97;;;1.90;;
81510;SDS011;70931;48.796;8.440;2024-02-21T04:34:35;6.50;;;1.93;;
81510;SDS011;70931;48.796;8.440;2024-02-21T04:37:00;8.10;;;2.10;;
81510;SDS011;70931;48.796;8.440;2024-02-21T04:39:25;8.77;;;2.10;;
81510;SDS011;70931;48.796;8.440;2024-02-21T04:41:50;7.40;;;2.00;;
81510;SDS011;70931;48.796;8.440;2024-02-21T04:44:16;8.73;;;2.13;;
81510;SDS011;70931;48.796;8.440;2024-02-21T04:46:44;6.97;;;2.23;;
81510;SDS011;70931;48.796;8.440;2024-02-21T04:49:09;5.78;;;1.75;;
81510;SDS011;70931;48.796;8.440;2024-02-21T04:51:34;9.17;;;2.30;;
81510;SDS011;70931;48.796;8.440;2024-02-21T04:53:59;6.03;;;1.60;;
81510;SDS011;70931;48.796;8.440;2024-02-21T04:56:25;6.73;;;1.77;;
81510;SDS011;70931;48.796;8.440;2024-02-21T04:58:50;10.50;;;1.93;;
81510;SDS011;70931;48.796;8.440;2024-02-21T05:01:15;4.73;;;1.87;;
81510;SDS011;70931;48.796;8.440;2024-02-21T05:03:40;5.33;;;1.63;;
81510;SDS011;70931;48.796;8.440;2024-02-21T05:06:06;7.00;;;2.23;;
81510;SDS011;70931;48.796;8.440;2024-02-21T05:08:31;5.60;;;2.00;;
81510;SDS011;70931;48.796;8.440;2024-02-21T05:10:56;6.90;;;1.80;;
81510;SDS011;70931;48.796;8.440;2024-02-21T05:13:21;8.00;;;1.90;;
81510;SDS011;70931;48.796;8.440;2024-02-21T05:15:47;6.73;;;1.87;;
81510;SDS011;70931;48.796;8.440;2024-02-21T05:18:12;8.30;;;2.45;;
81510;SDS011;70931;48.796;8.440;2024-02-21T05:20:37;7.63;;;1.83;;
81510;SDS011;70931;48.796;8.440;2024-02-21T05:23:03;7.40;;;2.13;;
81510;SDS011;70931;48.796;8.440;2024-02-21T05:25:28;7.30;;;1.85;;
81510;SDS011;70931;48.796;8.440;2024-02-21T05:27:53;9.50;;;2.00;;
81510;SDS011;70931;48.796;8.440;2024-02-21T05:30:18;6.97;;;1.60;;
81510;SDS011;70931;48.796;8.440;2024-02-21T05:32:44;10.20;;;1.73;;
81510;SDS011;70931;48.796;8.440;2024-02-21T05:35:09;6.53;;;1.80;;
81510;SDS011;70931;48.796;8.440;2024-02-21T05:37:34;8.03;;;2.63;;
81510;SDS011;70931;48.796;8.440;2024-02-21T05:39:59;7.70;;;2.10;;
81510;SDS011;70931;48.796;8.440;2024-02-21T05:42:25;5.43;;;1.70;;
81510;SDS011;70931;48.796;8.440;2024-02-21T05:44:50;6.73;;;2.33;;
81510;SDS011;70931;48.796;8.440;2024-02-21T05:47:15;7.07;;;1.70;;
81510;SDS011;70931;48.796;8.440;2024-02-21T05:49:40;5.77;;;2.20;;
81510;SDS011;70931;48.796;8.440;2024-02-21T05:52:06;4.20;;;1.67;;
81510;SDS011;70931;48.796;8.440;2024-02-21T05:54:31;6.40;;;1.50;;
81510;SDS011;70931;48.796;8.440;2024-02-21T05:56:56;7.93;;;1.90;;
81510;SDS011;70931;48.796;8.440;2024-02-21T05:59:21;6.50;;;1.83;;
81510;SDS011;70931;48.796;8.440;2024-02-21T06:01:54;5.67;;;1.80;;
81510;SDS011;70931;48.796;8.440;2024-02-21T06:04:20;7.80;;;2.65;;
81510;SDS011;70931;48.796;8.440;2024-02-21T06:06:45;6.63;;;1.80;;
81510;SDS011;70931;48.796;8.440;2024-02-21T06:09:10;6.10;;;1.90;;
81510;SDS011;70931;48.796;8.440;2024-02-21T06:11:36;7.30;;;1.83;;
81510;SDS011;70931;48.796;8.440;2024-02-21T06:14:01;6.83;;;1.83;;
81510;SDS011;70931;48.796;8.440;2024-02-21T06:16:26;6.53;;;2.07;;
81510;SDS011;70931;48.796;8.440;2024-02-21T06:18:51;6.10;;;1.87;;
81510;SDS011;70931;48.796;8.440;2024-02-21T06:21:16;6.00;;;1.83;;
81510;SDS011;70931;48.796;8.440;2024-02-21T06:23:42;10.07;;;2.00;;
81510;SDS011;70931;48.796;8.440;2024-02-21T06:26:07;5.60;;;1.80;;
81510;SDS011;70931;48.796;8.440;2024-02-21T06:28:32;7.30;;;1.80;;
81510;SDS011;70931;48.796;8.440;2024-02-21T06:30:57;4.97;;;1.80;;
81510;SDS011;70931;48.796;8.440;2024-02-21T06:33:23;9.63;;;1.93;;
81510;SDS011;70931;48.796;8.440;2024-02-21T06:35:48;8.47;;;2.13;;
81510;SDS011;70931;48.796;8.440;2024-02-21T06:38:13;10.00;;;1.97;;
81510;SDS011;70931;48.796;8.440;2024-02-21T06:40:38;7.93;;;2.30;;
81510;SDS011;70931;48.796;8.440;2024-02-21T06:43:04;7.50;;;1.90;;
81510;SDS011;70931;48.796;8.440;2024-02-21T06:45:29;6.75;;;1.80;;
81510;SDS011;70931;48.796;8.440;2024-02-21T06:47:54;6.67;;;1.77;;
81510;SDS011;70931;48.796;8.440;2024-02-21T06:50:20;4.20;;;1.70;;
81510;SDS011;70931;48.796;8.440;2024-02-21T06:52:45;4.10;;;1.70;;
81510;SDS011;70931;48.796;8.440;2024-02-21T06:55:10;4.03;;;1.50;;
81510;SDS011;70931;48.796;8.440;2024-02-21T06:57:35;6.43;;;1.50;;
81510;SDS011;70931;48.796;8.440;2024-02-21T07:00:00;7.73;;;1.87;;
81510;SDS011;70931;48.796;8.440;2024-02-21T07:02:26;7.00;;;1.60;;
81510;SDS011;70931;48.796;8.440;2024-02-21T07:04:51;5.63;;;1.73;;
81510;SDS011;70931;48.796;8.440;2024-02-21T07:07:16;5.77;;;1.67;;
81510;SDS011;70931;48.796;8.440;2024-02-21T07:09:41;4.73;;;1.63;;
81510;SDS011;70931;48.796;8.440;2024-02-21T07:12:07;7.23;;;2.27;;
81510;SDS011;70931;48.796;8.440;2024-02-21T07:14:32;5.23;;;1.90;;
81510;SDS011;70931;48.796;8.440;2024-02-21T07:16:58;5.82;;;1.80;;
81510;SDS011;70931;48.796;8.440;2024-02-21T07:19:23;7.00;;;1.70;;
81510;SDS011;70931;48.796;8.440;2024-02-21T07:21:48;4.47;;;1.70;;
81510;SDS011;70931;48.796;8.440;2024-02-21T07:24:14;7.53;;;1.87;;
81510;SDS011;70931;48.796;8.440;2024-02-21T07:26:42;6.70;;;1.87;;
81510;SDS011;70931;48.796;8.440;2024-02-21T07:29:08;4.93;;;1.63;;
81510;SDS011;70931;48.796;8.440;2024-02-21T07:31:38;4.30;;;1.55;;
81510;SDS011;70931;48.796;8.440;2024-02-21T07:34:07;5.32;;;1.35;;
81510;SDS011;70931;48.796;8.440;2024-02-21T07:36:32;5.57;;;1.90;;
81510;SDS011;70931;48.796;8.440;2024-02-21T07:38:58;6.37;;;1.97;;
81510;SDS011;70931;48.796;8.440;2024-02-21T07:41:24;4.18;;;1.58;;
81510;SDS011;70931;48.796;8.440;2024-02-21T07:43:50;8.18;;;1.75;;
81510;SDS011;70931;48.796;8.440;2024-02-21T07:46:15;7.33;;;1.90;;
81510;SDS011;70931;48.796;8.440;2024-02-21T07:48:40;8.10;;;1.60;;
81510;SDS011;70931;48.796;8.440;2024-02-21T07:51:05;4.90;;;1.80;;
81510;SDS011;70931;48.796;8.440;2024-02-21T07:53:31;9.03;;;2.20;;
81510;SDS011;70931;48.796;8.440;2024-02-21T07:55:56;6.03;;;1.60;;
81510;SDS011;70931;48.796;8.440;2024-02-21T07:58:21;7.90;;;2.00;;
81510;SDS011;70931;48.796;8.440;2024-02-21T08:00:46;5.57;;;1.70;;
81510;SDS011;70931;48.796;8.440;2024-02-21T08:03:11;5.57;;;1.63;;
81510;SDS011;70931;48.796;8.440;2024-02-21T08:05:37;7.83;;;2.27;;
81510;SDS011;70931;48.796;8.440;2024-02-21T08:08:03;6.43;;;2.10;;
81510;SDS011;70931;48.796;8.440;2024-02-21T08:10:28;5.07;;;1.95;;
81510;SDS011;70931;48.796;8.440;2024-02-21T08:12:54;10.50;;;2.80;;
81510;SDS011;70931;48.796;8.440;2024-02-21T08:15:19;7.47;;;1.90;;
81510;SDS011;70931;48.796;8.440;2024-02-21T08:17:44;6.17;;;2.13;;
81510;SDS011;70931;48.796;8.440;2024-02-21T08:20:09;7.97;;;1.87;;
81510;SDS011;70931;48.796;8.440;2024-02-21T08:22:37;6.97;;;2.20;;
81510;SDS011;70931;48.796;8.440;2024-02-21T08:25:02;6.20;;;1.85;;
81510;SDS011;70931;48.796;8.440;2024-02-21T08:27:28;5.75;;;1.70;;
81510;SDS011;70931;48.796;8.440;2024-02-21T08:29:53;4.60;;;1.30;;
81510;SDS011;70931;48.796;8.440;2024-02-21T08:32:18;4.43;;;1.53;;
81510;SDS011;70931;48.796;8.440;2024-02-21T08:34:43;3.60;;;1.00;;
81510;SDS011;70931;48.796;8.440;2024-02-21T08:37:09;5.83;;;1.30;;
81510;SDS011;70931;48.796;8.440;2024-02-21T08:39:34;7.00;;;1.60;;
81510;SDS011;70931;48.796;8.440;2024-02-21T08:41:59;5.80;;;1.80;;
81510;SDS011;70931;48.796;8.440;2024-02-21T08:44:24;6.73;;;1.90;;
81510;SDS011;70931;48.796;8.440;2024-02-21T08:46:50;5.07;;;1.77;;
81510;SDS011;70931;48.796;8.440;2024-02-21T08:49:15;5.53;;;1.60;;
81510;SDS011;70931;48.796;8.440;2024-02-21T08:51:40;4.90;;;1.50;;
81510;SDS011;70931;48.796;8.440;2024-02-21T08:54:05;6.33;;;1.47;;
81510;SDS011;70931;48.796;8.440;2024-02-21T08:56:31;6.10;;;1.33;;
81510;SDS011;70931;48.796;8.440;2024-02-21T08:58:56;3.13;;;1.03;;
81510;SDS011;70931;48.796;8.440;2024-02-21T09:01:21;4.40;;;1.23;;
81510;SDS011;70931;48.796;8.440;2024-02-21T09:03:46;7.30;;;1.40;;
81510;SDS011;70931;48.796;8.440;2024-02-21T09:06:12;4.47;;;1.30;;
81510;SDS011;70931;48.796;8.440;2024-02-21T09:08:37;3.93;;;1.20;;
81510;SDS011;70931;48.796;8.440;2024-02-21T09:11:02;4.90;;;1.33;;
81510;SDS011;70931;48.796;8.440;2024-02-21T09:13:27;5.88;;;1.38;;
81510;SDS011;70931;48.796;8.440;2024-02-21T09:15:53;3.97;;;1.00;;
81510;SDS011;70931;48.796;8.440;2024-02-21T09:18:18;4.87;;;1.33;;
81510;SDS011;70931;48.796;8.440;2024-02-21T09:20:43;4.47;;;1.10;;
81510;SDS011;70931;48.796;8.440;2024-02-21T09:23:10;6.95;;;1.30;;
81510;SDS011;70931;48.796;8.440;2024-02-21T09:25:35;6.38;;;1.50;;
81510;SDS011;70931;48.796;8.440;2024-02-21T09:28:03;5.10;;;1.30;;
81510;SDS011;70931;48.796;8.440;2024-02-21T09:30:29;5.45;;;1.40;;
81510;SDS011;70931;48.796;8.440;2024-02-21T09:32:54;5.70;;;1.40;;
81510;SDS011;70931;48.796;8.440;2024-02-21T09:35:19;4.80;;;1.47;;
81510;SDS011;70931;48.796;8.440;2024-02-21T09:37:45;5.53;;;1.17;;
81510;SDS011;70931;48.796;8.440;2024-02-21T09:40:10;4.33;;;1.30;;
81510;SDS011;70931;48.796;8.440;2024-02-21T09:42:39;7.50;;;1.92;;
81510;SDS011;70931;48.796;8.440;2024-02-21T09:45:10;7.05;;;1.55;;
81510;SDS011;70931;48.796;8.440;2024-02-21T09:50:44;4.68;;;1.45;;
81510;SDS011;70931;48.796;8.440;2024-02-21T09:53:12;3.92;;;1.40;;
81510;SDS011;70931;48.796;8.440;2024-02-21T09:55:38;5.45;;;1.17;;
81510;SDS011;70931;48.796;8.440;2024-02-21T09:58:04;5.15;;;1.30;;
81510;SDS011;70931;48.796;8.440;2024-02-21T10:00:30;4.00;;;1.23;;
81510;SDS011;70931;48.796;8.440;2024-02-21T10:02:55;6.53;;;1.40;;
81510;SDS011;70931;48.796;8.440;2024-02-21T10:05:20;6.40;;;1.67;;
81510;SDS011;70931;48.796;8.440;2024-02-21T10:07:45;7.43;;;2.00;;
81510;SDS011;70931;48.796;8.440;2024-02-21T10:10:13;3.03;;;1.20;;
81510;SDS011;70931;48.796;8.440;2024-02-21T10:12:48;8.37;;;2.03;;
81510;SDS011;70931;48.796;8.440;2024-02-21T10:15:19;5.32;;;1.45;;
81510;SDS011;70931;48.796;8.440;2024-02-21T10:17:45;5.15;;;1.50;;
81510;SDS011;70931;48.796;8.440;2024-02-21T10:20:11;5.10;;;1.20;;
81510;SDS011;70931;48.796;8.440;2024-02-21T10:22:37;5.40;;;1.23;;
81510;SDS011;70931;48.796;8.440;2024-02-21T10:25:06;5.22;;;1.45;;
81510;SDS011;70931;48.796;8.440;2024-02-21T10:27:36;7.68;;;1.38;;
81510;SDS011;70931;48.796;8.440;2024-02-21T10:30:02;3.50;;;1.13;;
81510;SDS011;70931;48.796;8.440;2024-02-21T10:32:28;4.35;;;1.02;;
81510;SDS011;70931;48.796;8.440;2024-02-21T10:35:00;4.80;;;1.40;;
81510;SDS011;70931;48.796;8.440;2024-02-21T10:37:26;5.45;;;1.27;;
81510;SDS011;70931;48.796;8.440;2024-02-21T10:39:53;6.10;;;1.77;;
81510;SDS011;70931;48.796;8.440;2024-02-21T10:42:18;4.78;;;1.30;;
81510;SDS011;70931;48.796;8.440;2024-02-21T10:44:46;5.95;;;1.60;;
81510;SDS011;70931;48.796;8.440;2024-02-21T10:47:16;6.10;;;1.65;;
81510;SDS011;70931;48.796;8.440;2024-02-21T10:49:41;5.63;;;1.35;;
81510;SDS011;70931;48.796;8.440;2024-02-21T10:52:13;4.75;;;1.38;;
81510;SDS011;70931;48.796;8.440;2024-02-21T10:59:44;5.73;;;1.07;;
81510;SDS011;70931;48.796;8.440;2024-02-21T11:02:10;6.07;;;1.58;;
81510;SDS011;70931;48.796;8.440;2024-02-21T11:04:35;5.57;;;1.38;;
81510;SDS011;70931;48.796;8.440;2024-02-21T11:07:02;5.80;;;1.20;;
81510;SDS011;70931;48.796;8.440;2024-02-21T11:09:30;5.60;;;1.50;;
81510;SDS011;70931;48.796;8.440;2024-02-21T11:11:56;7.18;;;1.48;;
81510;SDS011;70931;48.796;8.440;2024-02-21T11:14:21;5.60;;;1.60;;
81510;SDS011;70931;48.796;8.440;2024-02-21T11:16:47;4.67;;;1.40;;
81510;SDS011;70931;48.796;8.440;2024-02-21T11:19:19;4.47;;;1.30;;
81510;SDS011;70931;48.796;8.440;2024-02-21T11:21:51;6.72;;;1.65;;
81510;SDS011;70931;48.796;8.440;2024-02-21T11:24:30;5.20;;;1.33;;
81510;SDS011;70931;48.796;8.440;2024-02-21T11:29:43;5.68;;;1.50;;
81510;SDS011;70931;48.796;8.440;2024-02-21T11:32:10;6.85;;;1.40;;
81510;SDS011;70931;48.796;8.440;2024-02-21T11:34:36;6.55;;;1.30;;
81510;SDS011;70931;48.796;8.440;2024-02-21T11:37:01;3.30;;;1.20;;
81510;SDS011;70931;48.796;8.440;2024-02-21T11:39:26;5.60;;;1.40;;
81510;SDS011;70931;48.796;8.440;2024-02-21T11:42:26;4.38;;;1.20;;
81510;SDS011;70931;48.796;8.440;2024-02-21T11:44:44;6.43;;;1.50;;
81510;SDS011;70931;48.796;8.440;2024-02-21T11:47:09;6.10;;;1.30;;
81510;SDS011;70931;48.796;8.440;2024-02-21T11:49:38;5.53;;;1.60;;
81510;SDS011;70931;48.796;8.440;2024-02-21T11:52:04;6.63;;;1.58;;
81510;SDS011;70931;48.796;8.440;2024-02-21T11:54:30;6.70;;;1.60;;
81510;SDS011;70931;48.796;8.440;2024-02-21T11:56:56;4.43;;;1.55;;
81510;SDS011;70931;48.796;8.440;2024-02-21T11:59:21;3.78;;;1.30;;
81510;SDS011;70931;48.796;8.440;2024-02-21T12:01:46;4.60;;;1.50;;
81510;SDS011;70931;48.796;8.440;2024-02-21T12:04:13;4.95;;;1.65;;
81510;SDS011;70931;48.796;8.440;2024-02-21T12:06:38;7.47;;;1.40;;
81510;SDS011;70931;48.796;8.440;2024-02-21T12:09:04;4.53;;;1.48;;
81510;SDS011;70931;48.796;8.440;2024-02-21T12:11:29;5.67;;;1.40;;
81510;SDS011;70931;48.796;8.440;2024-02-21T12:14:01;3.73;;;1.30;;
81510;SDS011;70931;48.796;8.440;2024-02-21T12:16:27;4.90;;;1.42;;
81510;SDS011;70931;48.796;8.440;2024-02-21T12:18:53;5.68;;;1.63;;
81510;SDS011;70931;48.796;8.440;2024-02-21T12:21:18;7.47;;;1.75;;
81510;SDS011;70931;48.796;8.440;2024-02-21T12:23:44;5.47;;;1.83;;
81510;SDS011;70931;48.796;8.440;2024-02-21T12:26:10;4.95;;;1.48;;
81510;SDS011;70931;48.796;8.440;2024-02-21T12:28:35;5.33;;;1.90;;
81510;SDS011;70931;48.796;8.440;2024-02-21T12:31:01;4.90;;;1.47;;
81510;SDS011;70931;48.796;8.440;2024-02-21T12:33:27;5.28;;;1.35;;
81510;SDS011;70931;48.796;8.440;2024-02-21T12:35:52;6.68;;;1.40;;
81510;SDS011;70931;48.796;8.440;2024-02-21T12:38:17;5.17;;;1.50;;
81510;SDS011;70931;48.796;8.440;2024-02-21T12:40:42;3.27;;;1.30;;
81510;SDS011;70931;48.796;8.440;2024-02-21T12:43:08;5.28;;;1.38;;
81510;SDS011;70931;48.796;8.440;2024-02-21T12:45:34;6.53;;;1.30;;
81510;SDS011;70931;48.796;8.440;2024-02-21T12:47:59;6.68;;;1.60;;
81510;SDS011;70931;48.796;8.440;2024-02-21T12:50:24;6.33;;;1.30;;
81510;SDS011;70931;48.796;8.440;2024-02-21T12:52:53;5.13;;;1.20;;
81510;SDS011;70931;48.796;8.440;2024-02-21T12:55:18;4.60;;;1.55;;
81510;SDS011;70931;48.796;8.440;2024-02-21T12:57:44;3.13;;;1.10;;
81510;SDS011;70931;48.796;8.440;2024-02-21T13:00:09;4.13;;;1.30;;
81510;SDS011;70931;48.796;8.440;2024-02-21T13:02:35;4.38;;;1.35;;
81510;SDS011;70931;48.796;8.440;2024-02-21T13:05:00;4.55;;;1.65;;
81510;SDS011;70931;48.796;8.440;2024-02-21T13:07:25;3.53;;;1.27;;
81510;SDS011;70931;48.796;8.440;2024-02-21T13:09:51;5.68;;;1.45;;
81510;SDS011;70931;48.796;8.440;2024-02-21T13:12:16;5.13;;;1.43;;
81510;SDS011;70931;48.796;8.440;2024-02-21T13:14:41;5.43;;;1.50;;
81510;SDS011;70931;48.796;8.440;2024-02-21T13:17:07;4.40;;;1.30;;
81510;SDS011;70931;48.796;8.440;2024-02-21T13:19:32;5.43;;;1.50;;
81510;SDS011;70931;48.796;8.440;2024-02-21T13:21:57;6.50;;;1.50;;
81510;SDS011;70931;48.796;8.440;2024-02-21T13:24:23;4.97;;;1.40;;
81510;SDS011;70931;48.796;8.440;2024-02-21T13:26:48;3.33;;;1.23;;
81510;SDS011;70931;48.796;8.440;2024-02-21T13:32:14;5.78;;;1.30;;
81510;SDS011;70931;48.796;8.440;2024-02-21T13:35:01;4.88;;;1.40;;
81510;SDS011;70931;48.796;8.440;2024-02-21T13:37:27;4.70;;;1.45;;
81510;SDS011;70931;48.796;8.440;2024-02-21T13:39:56;5.55;;;1.60;;
81510;SDS011;70931;48.796;8.440;2024-02-21T13:42:24;3.83;;;1.20;;
81510;SDS011;70931;48.796;8.440;2024-02-21T13:44:56;5.20;;;1.60;;
81510;SDS011;70931;48.796;8.440;2024-02-21T13:47:25;5.10;;;1.35;;
81510;SDS011;70931;48.796;8.440;2024-02-21T13:49:57;4.43;;;1.50;;
81510;SDS011;70931;48.796;8.440;2024-02-21T13:52:25;4.60;;;1.48;;
81510;SDS011;70931;48.796;8.440;2024-02-21T13:54:52;4.28;;;1.60;;
81510;SDS011;70931;48.796;8.440;2024-02-21T13:57:30;4.88;;;1.63;;
81510;SDS011;70931;48.796;8.440;2024-02-21T13:59:55;6.90;;;1.80;;
81510;SDS011;70931;48.796;8.440;2024-02-21T14:02:21;5.28;;;1.60;;
81510;SDS011;70931;48.796;8.440;2024-02-21T14:04:53;4.90;;;1.60;;
81510;SDS011;70931;48.796;8.440;2024-02-21T14:07:22;6.18;;;1.75;;
81510;SDS011;70931;48.796;8.440;2024-02-21T14:10:12;8.00;;;1.90;;
81510;SDS011;70931;48.796;8.440;2024-02-21T14:12:58;4.65;;;1.80;;
81510;SDS011;70931;48.796;8.440;2024-02-21T14:15:48;5.57;;;1.48;;
81510;SDS011;70931;48.796;8.440;2024-02-21T14:18:16;4.40;;;1.63;;
81510;SDS011;70931;48.796;8.440;2024-02-21T14:21:22;4.30;;;1.60;;
81510;SDS011;70931;48.796;8.440;2024-02-21T14:23:47;4.40;;;1.40;;
81510;SDS011;70931;48.796;8.440;2024-02-21T14:26:22;5.22;;;1.63;;
81510;SDS011;70931;48.796;8.440;2024-02-21T14:31:16;4.93;;;1.35;;
81510;SDS011;70931;48.796;8.440;2024-02-21T14:33:50;3.95;;;1.33;;
81510;SDS011;70931;48.796;8.440;2024-02-21T14:36:22;5.05;;;1.60;;
81510;SDS011;70931;48.796;8.440;2024-02-21T14:38:54;5.97;;;1.80;;
81510;SDS011;70931;48.796;8.440;2024-02-21T14:41:24;3.40;;;1.40;;
81510;SDS011;70931;48.796;8.440;2024-02-21T14:43:50;6.13;;;1.52;;
81510;SDS011;70931;48.796;8.440;2024-02-21T14:46:16;6.53;;;1.48;;
81510;SDS011;70931;48.796;8.440;2024-02-21T14:48:59;6.03;;;1.70;;
81510;SDS011;70931;48.796;8.440;2024-02-21T14:51:38;5.25;;;1.70;;
81510;SDS011;70931;48.796;8.440;2024-02-21T14:54:06;4.38;;;1.50;;
81510;SDS011;70931;48.796;8.440;2024-02-21T14:56:31;6.30;;;1.90;;
81510;SDS011;70931;48.796;8.440;2024-02-21T14:58:57;5.67;;;2.00;;